1860 NOT_NAMED (1860052S10081)


IBTrACS version v04r00. Visit IBTrACS website for data access.
Please direct all questions to the IBTrACS Q and A forum

Storm track - Intensity - Wind Radii - Intensity Data - Source Data - All data

Summary Information

Storm ID 1860052S10081
Start Feb 21 06Z
End Feb 28 06Z
ATCF IDs
Track status Best track data.

Storm track plot

Map of storm track

Intensity plots

No Intensity information for this storm


Radial wind information

No radial wind information for this storm


Position and Intensity Table

BASIN ISO_TIME_________ NATURE LAT LON
degrees north degrees east
SI 1860-02-21 06:00:00 NR -9.80 80.70
SI 09:00:00 NR -10.00 80.42
SI 12:00:00 NR -10.19 80.15
SI 15:00:00 NR -10.39 79.87
SI 18:00:00 NR -10.46 79.78
SI 21:00:00 NR -10.63 79.57
SI 1860-02-22 00:00:00 NR -10.85 79.29
SI 03:00:00 NR -11.08 78.99
SI 06:00:00 NR -11.30 78.70
SI 09:00:00 NR -11.49 78.46
SI 12:00:00 NR -11.66 78.25
SI 15:00:00 NR -11.82 78.06
SI 18:00:00 NR -11.97 77.87
SI 21:00:00 NR -12.12 77.65
SI 1860-02-23 00:00:00 NR -12.27 77.42
SI 03:00:00 NR -12.43 77.18
SI 06:00:00 NR -12.60 76.95
SI 09:00:00 NR -12.80 76.71
SI 12:00:00 NR -13.01 76.47
SI 15:00:00 NR -13.23 76.23
SI 18:00:00 NR -13.45 75.99
SI 21:00:00 NR -13.66 75.75
SI 1860-02-24 00:00:00 NR -13.87 75.51
SI 03:00:00 NR -14.06 75.28
SI 06:00:00 NR -14.25 75.05
SI 09:00:00 NR -14.42 74.84
SI 12:00:00 NR -14.57 74.64
SI 15:00:00 NR -14.72 74.45
SI 18:00:00 NR -14.87 74.27
SI 21:00:00 NR -15.01 74.09
SI 1860-02-25 00:00:00 NR -15.16 73.92
SI 03:00:00 NR -15.32 73.75
SI 06:00:00 NR -15.50 73.55
SI 09:00:00 NR -15.71 73.31
SI 12:00:00 NR -15.93 73.05
SI 15:00:00 NR -16.16 72.79
SI 18:00:00 NR -16.40 72.54
SI 21:00:00 NR -16.63 72.31
SI 1860-02-26 00:00:00 NR -16.86 72.09
SI 03:00:00 NR -17.09 71.89
SI 06:00:00 NR -17.30 71.70
SI 09:00:00 NR -17.50 71.53
SI 12:00:00 NR -17.70 71.36
SI 15:00:00 NR -17.88 71.21
SI 18:00:00 NR -18.06 71.07
SI 21:00:00 NR -18.22 70.92
SI 1860-02-27 00:00:00 NR -18.36 70.76
SI 03:00:00 NR -18.50 70.60
SI 06:00:00 NR -18.62 70.44
SI 09:00:00 NR -18.73 70.28
SI 12:00:00 NR -18.85 70.16
SI 15:00:00 NR -18.97 70.05
SI 18:00:00 NR -19.08 69.94
SI 21:00:00 NR -19.19 69.83
SI 1860-02-28 00:00:00 NR -19.29 69.72
SI 03:00:00 NR -19.40 69.61
SI 06:00:00 NR -19.50 69.50

Source Information

Agency Information
USA
TOKYO
CMA
HKO
NEWDELHI
REUNION WMO-Best-Tracks.txt:Line=268:xxxx860041
BOM
NADI
WELLINGTON
DS824
TD9636 cons_worldwide_trop_cyclone_18710101-19891231-005:Line=359
TD9635
NEUMANN
MLC

All available IBTrACS Data

SEASON BASIN SUBBASIN ISO_TIME_________ NATURE LAT LON WMO AGENCY DIST2LAND LANDFALL IFLAG USA SSHS REUNION LAT REUNION LON REUNION TYPE REUNION TNUM TD9636 LAT TD9636 LON TD9636 STAGE STORM SPEED STORM DIR
Year degrees north degrees east km km 1 degrees north degrees east 1 degrees north degrees east kts degrees
1860 SI MM 1860-02-21 06:00:00 NR -9.80 80.70 1759 1759 _____O________ -1 -9.80 80.70 99 9.90 7 234
1860 SI MM 09:00:00 NR -10.00 80.42 1781 1781 _____P________ -1 -10.00 80.42 99 7 234
1860 SI MM 12:00:00 NR -10.19 80.15 1804 1804 _____P________ -1 -10.19 80.15 99 7 234
1860 SI MM 15:00:00 NR -10.39 79.87 1828 1828 _____P________ -1 -10.39 79.87 99 4 233
1860 SI MM 18:00:00 NR -10.46 79.78 1839 1839 _____P____O___ -1 -10.58 79.60 99 -10.00 80.50 7 4 231
1860 SI MM 21:00:00 NR -10.63 79.57 1852 1852 _____P____P___ -1 -10.77 79.34 99 -10.36 80.02 7 6 232
1860 SI MM 1860-02-22 00:00:00 NR -10.85 79.29 1876 1876 _____P____P___ -1 -10.95 79.08 99 -10.71 79.56 7 7 232
1860 SI MM 03:00:00 NR -11.08 78.99 1913 1913 _____P____P___ -1 -11.13 78.84 99 -11.03 79.14 7 7 232
1860 SI MM 06:00:00 NR -11.30 78.70 reunion 1938 1938 _____O____O___ -1 -11.30 78.60 99 9.90 -11.30 78.80 7 7 231
1860 SI MM 09:00:00 NR -11.49 78.46 1963 1963 _____P____P___ -1 -11.47 78.37 99 -11.52 78.54 7 6 230
1860 SI MM 12:00:00 NR -11.66 78.25 1988 1988 _____P____P___ -1 -11.63 78.16 99 -11.70 78.35 7 5 230
1860 SI MM 15:00:00 NR -11.82 78.06 2002 2002 _____P____P___ -1 -11.78 77.95 99 -11.86 78.18 7 5 231
1860 SI MM 18:00:00 NR -11.97 77.87 2027 2027 _____P____O___ -1 -11.94 77.74 99 -12.00 78.00 7 5 233
1860 SI MM 21:00:00 NR -12.12 77.65 2043 2043 _____P____P___ -1 -12.10 77.54 99 -12.15 77.76 7 5 236
1860 SI MM 1860-02-23 00:00:00 NR -12.27 77.42 2069 2069 _____P____P___ -1 -12.26 77.33 99 -12.29 77.51 7 5 236
1860 SI MM 03:00:00 NR -12.43 77.18 2084 2084 _____P____P___ -1 -12.43 77.12 99 -12.43 77.25 7 6 234
1860 SI MM 06:00:00 NR -12.60 76.95 reunion 2110 2112 _____O____O___ -1 -12.60 76.90 99 9.90 -12.60 77.00 7 6 231
1860 SI MM 09:00:00 NR -12.80 76.71 2139 2139 _____P____P___ -1 -12.79 76.65 99 -12.81 76.77 7 6 229
1860 SI MM 12:00:00 NR -13.01 76.47 2151 2112 _____P____P___ -1 -12.99 76.40 99 -13.03 76.54 7 6 227
1860 SI MM 15:00:00 NR -13.23 76.23 2112 2083 _____P____P___ -1 -13.19 76.14 99 -13.27 76.32 7 6 227
1860 SI MM 18:00:00 NR -13.45 75.99 2078 2054 _____P____O___ -1 -13.40 75.89 99 -13.50 76.10 7 6 228
1860 SI MM 21:00:00 NR -13.66 75.75 2040 2011 _____P____P___ -1 -13.61 75.63 99 -13.72 75.87 7 6 228
1860 SI MM 1860-02-24 00:00:00 NR -13.87 75.51 2011 1982 _____P____P___ -1 -13.81 75.38 99 -13.92 75.64 7 6 229
1860 SI MM 03:00:00 NR -14.06 75.28 1982 1958 _____P____P___ -1 -14.01 75.13 99 -14.12 75.42 7 6 229
1860 SI MM 06:00:00 NR -14.25 75.05 reunion 1958 1930 _____O____O___ -1 -14.20 74.90 99 9.90 -14.30 75.20 7 6 230
1860 SI MM 09:00:00 NR -14.42 74.84 1920 1901 _____P____P___ -1 -14.37 74.69 99 -14.46 74.99 7 5 231
1860 SI MM 12:00:00 NR -14.57 74.64 1891 1877 _____P____P___ -1 -14.53 74.50 99 -14.61 74.78 7 5 231
1860 SI MM 15:00:00 NR -14.72 74.45 1877 1849 _____P____P___ -1 -14.68 74.31 99 -14.76 74.59 7 5 231
1860 SI MM 18:00:00 NR -14.87 74.27 1849 1825 _____P____O___ -1 -14.83 74.13 99 -14.90 74.40 7 5 229
1860 SI MM 21:00:00 NR -15.01 74.09 1825 1797 _____P____P___ -1 -14.99 73.95 99 -15.04 74.23 7 4 228
1860 SI MM 1860-02-25 00:00:00 NR -15.16 73.92 1797 1783 _____P____P___ -1 -15.15 73.77 99 -15.18 74.07 7 5 227
1860 SI MM 03:00:00 NR -15.32 73.75 1773 1755 _____P____P___ -1 -15.32 73.59 99 -15.33 73.90 7 5 227
1860 SI MM 06:00:00 NR -15.50 73.55 reunion 1755 1717 _____O____O___ -1 -15.50 73.40 99 9.90 -15.50 73.70 7 6 228
1860 SI MM 09:00:00 NR -15.71 73.31 1717 1689 _____P____P___ -1 -15.71 73.18 99 -15.70 73.44 7 6 228
1860 SI MM 12:00:00 NR -15.93 73.05 1689 1648 _____P____P___ -1 -15.93 72.95 99 -15.93 73.16 7 7 227
1860 SI MM 15:00:00 NR -16.16 72.79 1648 1621 _____P____P___ -1 -16.17 72.71 99 -16.16 72.87 7 7 226
1860 SI MM 18:00:00 NR -16.40 72.54 1611 1583 _____P____O___ -1 -16.40 72.48 99 -16.40 72.60 7 7 225
1860 SI MM 21:00:00 NR -16.63 72.31 1583 1556 _____P____P___ -1 -16.64 72.25 99 -16.63 72.37 7 6 223
1860 SI MM 1860-02-26 00:00:00 NR -16.86 72.09 1553 1527 _____P____P___ -1 -16.87 72.02 99 -16.86 72.16 7 6 221
1860 SI MM 03:00:00 NR -17.09 71.89 1527 1500 _____P____P___ -1 -17.09 71.80 99 -17.08 71.97 7 6 220
1860 SI MM 06:00:00 NR -17.30 71.70 reunion 1500 1474 _____O____O___ -1 -17.30 71.60 99 9.90 -17.30 71.80 7 5 220
1860 SI MM 09:00:00 NR -17.50 71.53 1474 1458 _____P____P___ -1 -17.49 71.42 99 -17.52 71.64 7 5 219
1860 SI MM 12:00:00 NR -17.70 71.36 1458 1432 _____P____P___ -1 -17.68 71.24 99 -17.72 71.48 7 5 218
1860 SI MM 15:00:00 NR -17.88 71.21 1432 1420 _____P____P___ -1 -17.85 71.08 99 -17.92 71.34 7 5 218
1860 SI MM 18:00:00 NR -18.06 71.07 1417 1394 _____P____O___ -1 -18.02 70.93 99 -18.10 71.20 7 4 220
1860 SI MM 21:00:00 NR -18.22 70.92 1394 1379 _____P____P___ -1 -18.17 70.79 99 -18.27 71.05 7 4 223
1860 SI MM 1860-02-27 00:00:00 NR -18.36 70.76 1379 1357 _____P____P___ -1 -18.32 70.65 99 -18.42 70.91 7 4 228
1860 SI MM 03:00:00 NR -18.50 70.60 1357 1334 _____P____P___ -1 -18.47 70.52 99 -18.56 70.75 7 4 230
1860 SI MM 06:00:00 NR -18.62 70.44 reunion 1334 1322 _____O____O___ -1 -18.60 70.40 99 9.90 -18.70 70.60 7 4 233
1860 SI MM 09:00:00 NR -18.73 70.28 1322 1309 _____P________ -1 -18.73 70.28 99 7 4 229
1860 SI MM 12:00:00 NR -18.85 70.16 1309 1295 _____P________ -1 -18.85 70.16 99 7 3 223
1860 SI MM 15:00:00 NR -18.97 70.05 1285 1273 _____P________ -1 -18.97 70.05 99 7 3 223
1860 SI MM 18:00:00 NR -19.08 69.94 1273 1261 _____P________ -1 -19.08 69.94 99 3 223
1860 SI MM 21:00:00 NR -19.19 69.83 1261 1249 _____P________ -1 -19.19 69.83 99 3 224
1860 SI MM 1860-02-28 00:00:00 NR -19.29 69.72 1249 1237 _____P________ -1 -19.29 69.72 99 3 224
1860 SI MM 03:00:00 NR -19.40 69.61 1237 1226 _____P________ -1 -19.40 69.61 99 3 225
1860 SI MM 06:00:00 NR -19.50 69.50 reunion 1226 _____O________ -1 -19.50 69.50 99 9.90 3 226